sensor_id;sensor_type;location;lat;lon;timestamp;pressure;altitude;pressure_sealevel;temperature;humidity
45541;BME280;31265;49.680;8.608;2023-09-12T00:01:05;100094.81;;;17.35;100.00
45541;BME280;31265;49.680;8.608;2023-09-12T00:03:34;100088.72;;;17.38;100.00
45541;BME280;31265;49.680;8.608;2023-09-12T00:06:04;100090.88;;;17.40;100.00
45541;BME280;31265;49.680;8.608;2023-09-12T00:08:32;100095.16;;;17.41;100.00
45541;BME280;31265;49.680;8.608;2023-09-12T00:11:02;100097.63;;;17.35;100.00
45541;BME280;31265;49.680;8.608;2023-09-12T00:13:31;100107.50;;;17.36;100.00
45541;BME280;31265;49.680;8.608;2023-09-12T00:15:59;100106.38;;;17.41;100.00
45541;BME280;31265;49.680;8.608;2023-09-12T00:18:31;100110.31;;;17.36;100.00
45541;BME280;31265;49.680;8.608;2023-09-12T00:21:01;100112.66;;;17.28;100.00
45541;BME280;31265;49.680;8.608;2023-09-12T00:23:32;100115.13;;;17.22;100.00
45541;BME280;31265;49.680;8.608;2023-09-12T00:26:00;100116.13;;;17.14;100.00
45541;BME280;31265;49.680;8.608;2023-09-12T00:28:29;100112.09;;;17.06;100.00
45541;BME280;31265;49.680;8.608;2023-09-12T00:30:57;100123.31;;;17.06;100.00
45541;BME280;31265;49.680;8.608;2023-09-12T00:33:25;100107.28;;;16.94;100.00
45541;BME280;31265;49.680;8.608;2023-09-12T00:35:54;100110.56;;;16.91;100.00
45541;BME280;31265;49.680;8.608;2023-09-12T00:38:22;100110.56;;;16.91;100.00
45541;BME280;31265;49.680;8.608;2023-09-12T00:40:52;100107.75;;;16.91;100.00
45541;BME280;31265;49.680;8.608;2023-09-12T00:43:20;100109.00;;;16.88;100.00
45541;BME280;31265;49.680;8.608;2023-09-12T00:45:48;100104.47;;;16.94;100.00
45541;BME280;31265;49.680;8.608;2023-09-12T00:48:18;100099.22;;;17.01;100.00
45541;BME280;31265;49.680;8.608;2023-09-12T00:50:50;100095.44;;;16.96;100.00
45541;BME280;31265;49.680;8.608;2023-09-12T00:53:21;100091.19;;;16.95;100.00
45541;BME280;31265;49.680;8.608;2023-09-12T00:55:54;100094.50;;;16.91;100.00
45541;BME280;31265;49.680;8.608;2023-09-12T00:58:24;100092.19;;;16.88;100.00
45541;BME280;31265;49.680;8.608;2023-09-12T01:00:53;100086.25;;;16.82;100.00
45541;BME280;31265;49.680;8.608;2023-09-12T01:03:22;100081.84;;;16.79;100.00
45541;BME280;31265;49.680;8.608;2023-09-12T01:05:51;100080.25;;;16.75;100.00
45541;BME280;31265;49.680;8.608;2023-09-12T01:08:20;100074.41;;;16.71;100.00
45541;BME280;31265;49.680;8.608;2023-09-12T01:10:49;100079.16;;;16.69;100.00
45541;BME280;31265;49.680;8.608;2023-09-12T01:13:20;100076.34;;;16.69;100.00
45541;BME280;31265;49.680;8.608;2023-09-12T01:15:48;100083.44;;;16.70;100.00
45541;BME280;31265;49.680;8.608;2023-09-12T01:18:17;100078.44;;;16.68;100.00
45541;BME280;31265;49.680;8.608;2023-09-12T01:21:10;100086.44;;;16.74;100.00
45541;BME280;31265;49.680;8.608;2023-09-12T01:23:55;100090.25;;;16.79;100.00
45541;BME280;31265;49.680;8.608;2023-09-12T01:26:40;100087.69;;;16.83;100.00
45541;BME280;31265;49.680;8.608;2023-09-12T01:29:12;100077.94;;;16.84;100.00
45541;BME280;31265;49.680;8.608;2023-09-12T01:31:42;100069.16;;;16.77;100.00
45541;BME280;31265;49.680;8.608;2023-09-12T01:34:12;100078.44;;;16.68;100.00
45541;BME280;31265;49.680;8.608;2023-09-12T01:36:41;100068.34;;;16.63;100.00
45541;BME280;31265;49.680;8.608;2023-09-12T01:39:10;100068.22;;;16.61;100.00
45541;BME280;31265;49.680;8.608;2023-09-12T01:41:40;100066.53;;;16.56;100.00
45541;BME280;31265;49.680;8.608;2023-09-12T01:44:14;100056.53;;;16.53;100.00
45541;BME280;31265;49.680;8.608;2023-09-12T01:46:43;100047.81;;;16.47;100.00
45541;BME280;31265;49.680;8.608;2023-09-12T01:49:12;100038.44;;;16.42;100.00
45541;BME280;31265;49.680;8.608;2023-09-12T01:51:41;100039.28;;;16.45;100.00
45541;BME280;31265;49.680;8.608;2023-09-12T01:54:10;100046.31;;;16.46;100.00
45541;BME280;31265;49.680;8.608;2023-09-12T01:56:39;100048.53;;;16.47;100.00
45541;BME280;31265;49.680;8.608;2023-09-12T01:59:08;100047.28;;;16.50;100.00
45541;BME280;31265;49.680;8.608;2023-09-12T02:01:37;100042.94;;;16.47;100.00
45541;BME280;31265;49.680;8.608;2023-09-12T02:04:06;100049.00;;;16.44;100.00
45541;BME280;31265;49.680;8.608;2023-09-12T02:06:35;100041.72;;;16.39;100.00
45541;BME280;31265;49.680;8.608;2023-09-12T02:09:04;100038.69;;;16.34;100.00
45541;BME280;31265;49.680;8.608;2023-09-12T02:11:32;100030.28;;;16.34;100.00
45541;BME280;31265;49.680;8.608;2023-09-12T02:14:00;100037.34;;;16.36;100.00
45541;BME280;31265;49.680;8.608;2023-09-12T02:16:29;100021.50;;;16.40;100.00
45541;BME280;31265;49.680;8.608;2023-09-12T02:18:59;100029.53;;;16.46;100.00
45541;BME280;31265;49.680;8.608;2023-09-12T02:21:27;100027.09;;;16.52;100.00
45541;BME280;31265;49.680;8.608;2023-09-12T02:23:56;100032.06;;;16.53;100.00
45541;BME280;31265;49.680;8.608;2023-09-12T02:26:24;100026.06;;;16.59;100.00
45541;BME280;31265;49.680;8.608;2023-09-12T02:28:52;100020.97;;;16.67;100.00
45541;BME280;31265;49.680;8.608;2023-09-12T02:31:21;100019.97;;;16.74;100.00
45541;BME280;31265;49.680;8.608;2023-09-12T02:33:49;100017.78;;;16.73;100.00
45541;BME280;31265;49.680;8.608;2023-09-12T02:36:19;100018.72;;;16.77;100.00
45541;BME280;31265;49.680;8.608;2023-09-12T02:38:47;100021.69;;;16.80;100.00
45541;BME280;31265;49.680;8.608;2023-09-12T02:41:15;100012.16;;;16.73;100.00
45541;BME280;31265;49.680;8.608;2023-09-12T02:43:44;100023.75;;;16.67;100.00
45541;BME280;31265;49.680;8.608;2023-09-12T02:46:12;100018.56;;;16.62;100.00
45541;BME280;31265;49.680;8.608;2023-09-12T02:48:41;100015.75;;;16.62;100.00
45541;BME280;31265;49.680;8.608;2023-09-12T02:51:09;100023.53;;;16.63;100.00
45541;BME280;31265;49.680;8.608;2023-09-12T02:53:39;100025.56;;;16.74;100.00
45541;BME280;31265;49.680;8.608;2023-09-12T02:56:07;100031.91;;;16.87;100.00
45541;BME280;31265;49.680;8.608;2023-09-12T02:58:35;100046.66;;;17.13;100.00
45541;BME280;31265;49.680;8.608;2023-09-12T03:01:04;100048.88;;;17.28;100.00
45541;BME280;31265;49.680;8.608;2023-09-12T03:03:33;100061.44;;;17.27;100.00
45541;BME280;31265;49.680;8.608;2023-09-12T03:06:02;100054.31;;;17.12;100.00
45541;BME280;31265;49.680;8.608;2023-09-12T03:08:31;100059.25;;;17.00;100.00
45541;BME280;31265;49.680;8.608;2023-09-12T03:11:00;100071.06;;;16.98;100.00
45541;BME280;31265;49.680;8.608;2023-09-12T03:13:33;100049.31;;;17.11;100.00
45541;BME280;31265;49.680;8.608;2023-09-12T03:16:04;100042.66;;;17.04;100.00
45541;BME280;31265;49.680;8.608;2023-09-12T03:18:33;100026.75;;;16.95;100.00
45541;BME280;31265;49.680;8.608;2023-09-12T03:21:01;100030.78;;;16.92;100.00
45541;BME280;31265;49.680;8.608;2023-09-12T03:23:30;100036.03;;;16.86;100.00
45541;BME280;31265;49.680;8.608;2023-09-12T03:26:02;100028.88;;;17.08;100.00
45541;BME280;31265;49.680;8.608;2023-09-12T03:28:32;100028.53;;;17.02;100.00
45541;BME280;31265;49.680;8.608;2023-09-12T03:31:06;100019.44;;;16.90;100.00
45541;BME280;31265;49.680;8.608;2023-09-12T03:33:35;100020.78;;;16.89;100.00
45541;BME280;31265;49.680;8.608;2023-09-12T03:36:05;100031.66;;;16.83;100.00
45541;BME280;31265;49.680;8.608;2023-09-12T03:38:33;100020.22;;;16.79;100.00
45541;BME280;31265;49.680;8.608;2023-09-12T03:41:03;100009.59;;;16.77;100.00
45541;BME280;31265;49.680;8.608;2023-09-12T03:43:33;100010.47;;;16.80;100.00
45541;BME280;31265;49.680;8.608;2023-09-12T03:46:03;100013.41;;;16.82;100.00
45541;BME280;31265;49.680;8.608;2023-09-12T03:48:33;100013.59;;;16.86;100.00
45541;BME280;31265;49.680;8.608;2023-09-12T03:51:03;100020.69;;;16.87;100.00
45541;BME280;31265;49.680;8.608;2023-09-12T03:53:32;100017.88;;;16.87;100.00
45541;BME280;31265;49.680;8.608;2023-09-12T03:56:00;100030.66;;;16.90;100.00
45541;BME280;31265;49.680;8.608;2023-09-12T03:58:30;100041.72;;;17.00;100.00
45541;BME280;31265;49.680;8.608;2023-09-12T04:00:58;100048.50;;;17.08;100.00
45541;BME280;31265;49.680;8.608;2023-09-12T04:03:27;100048.59;;;17.10;100.00
45541;BME280;31265;49.680;8.608;2023-09-12T04:05:55;100047.28;;;17.11;100.00
45541;BME280;31265;49.680;8.608;2023-09-12T04:08:24;100043.13;;;17.12;100.00
45541;BME280;31265;49.680;8.608;2023-09-12T04:10:52;100042.16;;;17.08;100.00
45541;BME280;31265;49.680;8.608;2023-09-12T04:13:21;100049.25;;;17.09;100.00
45541;BME280;31265;49.680;8.608;2023-09-12T04:15:50;100047.75;;;17.08;100.00
45541;BME280;31265;49.680;8.608;2023-09-12T04:18:19;100057.53;;;17.07;100.00
45541;BME280;31265;49.680;8.608;2023-09-12T04:20:47;100048.59;;;17.10;100.00
45541;BME280;31265;49.680;8.608;2023-09-12T04:23:15;100049.56;;;17.15;100.00
45541;BME280;31265;49.680;8.608;2023-09-12T04:25:46;100052.97;;;17.13;100.00
45541;BME280;31265;49.680;8.608;2023-09-12T04:28:14;100048.59;;;17.10;100.00
45541;BME280;31265;49.680;8.608;2023-09-12T04:30:46;100047.16;;;17.09;100.00
45541;BME280;31265;49.680;8.608;2023-09-12T04:33:16;100051.28;;;17.08;100.00
45541;BME280;31265;49.680;8.608;2023-09-12T04:35:44;100043.50;;;17.07;100.00
45541;BME280;31265;49.680;8.608;2023-09-12T04:38:13;100054.09;;;17.08;100.00
45541;BME280;31265;49.680;8.608;2023-09-12T04:40:43;100053.47;;;17.10;100.00
45541;BME280;31265;49.680;8.608;2023-09-12T04:43:11;100050.69;;;17.10;100.00
45541;BME280;31265;49.680;8.608;2023-09-12T04:45:40;100059.59;;;17.06;100.00
45541;BME280;31265;49.680;8.608;2023-09-12T04:48:08;100063.63;;;17.03;100.00
45541;BME280;31265;49.680;8.608;2023-09-12T04:50:41;100062.28;;;17.04;100.00
45541;BME280;31265;49.680;8.608;2023-09-12T04:53:10;100066.78;;;17.09;100.00
45541;BME280;31265;49.680;8.608;2023-09-12T04:55:39;100068.34;;;17.12;100.00
45541;BME280;31265;49.680;8.608;2023-09-12T04:58:08;100065.41;;;17.10;100.00
45541;BME280;31265;49.680;8.608;2023-09-12T05:00:39;100067.50;;;17.10;100.00
45541;BME280;31265;49.680;8.608;2023-09-12T05:03:08;100066.16;;;17.11;100.00
45541;BME280;31265;49.680;8.608;2023-09-12T05:05:36;100055.69;;;17.11;100.00
45541;BME280;31265;49.680;8.608;2023-09-12T05:08:07;100051.28;;;17.08;100.00
45541;BME280;31265;49.680;8.608;2023-09-12T05:10:35;100047.03;;;17.07;100.00
45541;BME280;31265;49.680;8.608;2023-09-12T05:13:04;100040.19;;;17.10;100.00
45541;BME280;31265;49.680;8.608;2023-09-12T05:15:32;100045.41;;;17.16;100.00
45541;BME280;31265;49.680;8.608;2023-09-12T05:18:02;100035.06;;;17.18;100.00
45541;BME280;31265;49.680;8.608;2023-09-12T05:20:31;100047.94;;;17.24;100.00
45541;BME280;31265;49.680;8.608;2023-09-12T05:23:00;100041.22;;;17.29;100.00
45541;BME280;31265;49.680;8.608;2023-09-12T05:25:29;100052.16;;;17.36;100.00
45541;BME280;31265;49.680;8.608;2023-09-12T05:27:57;100073.16;;;17.49;100.00
45541;BME280;31265;49.680;8.608;2023-09-12T05:30:26;100082.84;;;17.60;100.00
45541;BME280;31265;49.680;8.608;2023-09-12T05:32:54;100088.19;;;17.68;100.00
45541;BME280;31265;49.680;8.608;2023-09-12T05:35:23;100089.31;;;17.62;100.00
45541;BME280;31265;49.680;8.608;2023-09-12T05:37:52;100084.22;;;17.59;100.00
45541;BME280;31265;49.680;8.608;2023-09-12T05:40:20;100070.81;;;17.57;100.00
45541;BME280;31265;49.680;8.608;2023-09-12T05:42:50;100058.78;;;17.69;100.00
45541;BME280;31265;49.680;8.608;2023-09-12T05:45:19;100063.69;;;17.68;100.00
45541;BME280;31265;49.680;8.608;2023-09-12T05:47:49;100055.34;;;17.70;100.00
45541;BME280;31265;49.680;8.608;2023-09-12T05:50:19;100066.78;;;17.74;100.00
45541;BME280;31265;49.680;8.608;2023-09-12T05:52:48;100086.81;;;17.80;100.00
45541;BME280;31265;49.680;8.608;2023-09-12T05:55:17;100074.75;;;17.92;100.00
45541;BME280;31265;49.680;8.608;2023-09-12T05:57:48;100081.44;;;17.98;100.00
45541;BME280;31265;49.680;8.608;2023-09-12T06:00:22;100085.38;;;18.07;100.00
45541;BME280;31265;49.680;8.608;2023-09-12T06:02:52;100094.25;;;18.15;100.00
45541;BME280;31265;49.680;8.608;2023-09-12T06:05:21;100084.25;;;18.26;100.00
45541;BME280;31265;49.680;8.608;2023-09-12T06:07:49;100086.88;;;18.36;100.00
45541;BME280;31265;49.680;8.608;2023-09-12T06:10:18;100091.75;;;18.49;100.00
45541;BME280;31265;49.680;8.608;2023-09-12T06:12:46;100088.63;;;18.57;100.00
45541;BME280;31265;49.680;8.608;2023-09-12T06:15:17;100077.91;;;18.53;100.00
45541;BME280;31265;49.680;8.608;2023-09-12T06:17:46;100080.00;;;18.53;100.00
45541;BME280;31265;49.680;8.608;2023-09-12T06:20:15;100082.31;;;18.42;100.00
45541;BME280;31265;49.680;8.608;2023-09-12T06:22:43;100082.59;;;18.48;100.00
45541;BME280;31265;49.680;8.608;2023-09-12T06:25:12;100085.09;;;18.42;100.00
45541;BME280;31265;49.680;8.608;2023-09-12T06:27:40;100089.56;;;18.34;100.00
45541;BME280;31265;49.680;8.608;2023-09-12T06:30:10;100081.16;;;18.47;100.00
45541;BME280;31265;49.680;8.608;2023-09-12T06:32:42;100095.38;;;18.65;100.00
45541;BME280;31265;49.680;8.608;2023-09-12T06:35:13;100106.00;;;18.81;100.00
45541;BME280;31265;49.680;8.608;2023-09-12T06:37:42;100096.50;;;18.74;100.00
45541;BME280;31265;49.680;8.608;2023-09-12T06:40:10;100097.66;;;18.69;100.00
45541;BME280;31265;49.680;8.608;2023-09-12T06:42:39;100093.63;;;18.72;100.00
45541;BME280;31265;49.680;8.608;2023-09-12T06:45:08;100091.28;;;18.96;100.00
45541;BME280;31265;49.680;8.608;2023-09-12T06:47:36;100095.38;;;19.23;100.00
45541;BME280;31265;49.680;8.608;2023-09-12T06:50:05;100098.00;;;19.48;100.00
45541;BME280;31265;49.680;8.608;2023-09-12T06:52:41;100098.72;;;19.79;100.00
45541;BME280;31265;49.680;8.608;2023-09-12T06:55:10;100104.09;;;20.04;100.00
45541;BME280;31265;49.680;8.608;2023-09-12T06:57:38;100104.69;;;20.34;100.00
45541;BME280;31265;49.680;8.608;2023-09-12T07:00:10;100100.03;;;20.73;100.00
45541;BME280;31265;49.680;8.608;2023-09-12T07:02:39;100099.22;;;20.70;100.00
45541;BME280;31265;49.680;8.608;2023-09-12T07:05:08;100107.88;;;20.92;100.00
45541;BME280;31265;49.680;8.608;2023-09-12T07:07:39;100105.81;;;21.11;100.00
45541;BME280;31265;49.680;8.608;2023-09-12T07:10:09;100118.50;;;21.45;100.00
45541;BME280;31265;49.680;8.608;2023-09-12T07:12:51;100110.53;;;21.78;100.00
45541;BME280;31265;49.680;8.608;2023-09-12T07:15:19;100110.28;;;21.89;100.00
45541;BME280;31265;49.680;8.608;2023-09-12T07:17:48;100102.47;;;22.08;100.00
45541;BME280;31265;49.680;8.608;2023-09-12T07:20:17;100110.69;;;22.40;100.00
45541;BME280;31265;49.680;8.608;2023-09-12T07:22:47;100104.81;;;22.53;100.00
45541;BME280;31265;49.680;8.608;2023-09-12T07:25:17;100110.44;;;22.73;100.00
45541;BME280;31265;49.680;8.608;2023-09-12T07:27:46;100114.72;;;22.74;100.00
45541;BME280;31265;49.680;8.608;2023-09-12T07:30:15;100123.34;;;22.79;100.00
45541;BME280;31265;49.680;8.608;2023-09-12T07:32:44;100131.69;;;22.74;100.00
45541;BME280;31265;49.680;8.608;2023-09-12T07:35:12;100131.22;;;22.82;100.00
45541;BME280;31265;49.680;8.608;2023-09-12T07:37:40;100122.63;;;22.78;100.00
45541;BME280;31265;49.680;8.608;2023-09-12T07:40:10;100131.50;;;23.10;100.00
45541;BME280;31265;49.680;8.608;2023-09-12T07:42:40;100123.66;;;23.31;100.00
45541;BME280;31265;49.680;8.608;2023-09-12T07:45:09;100128.25;;;23.42;100.00
45541;BME280;31265;49.680;8.608;2023-09-12T07:47:38;100127.38;;;23.59;100.00
45541;BME280;31265;49.680;8.608;2023-09-12T07:50:07;100134.06;;;23.70;100.00
45541;BME280;31265;49.680;8.608;2023-09-12T07:52:36;100126.63;;;23.81;100.00
45541;BME280;31265;49.680;8.608;2023-09-12T07:55:08;100126.97;;;24.17;100.00
45541;BME280;31265;49.680;8.608;2023-09-12T07:57:37;100123.16;;;24.59;100.00
45541;BME280;31265;49.680;8.608;2023-09-12T08:00:08;100121.56;;;24.80;100.00
45541;BME280;31265;49.680;8.608;2023-09-12T08:02:40;100121.44;;;24.74;100.00
45541;BME280;31265;49.680;8.608;2023-09-12T08:05:08;100128.75;;;25.11;100.00
45541;BME280;31265;49.680;8.608;2023-09-12T08:07:39;100129.31;;;25.05;100.00
45541;BME280;31265;49.680;8.608;2023-09-12T08:10:08;100134.56;;;24.89;100.00
45541;BME280;31265;49.680;8.608;2023-09-12T08:12:36;100123.22;;;25.17;100.00
45541;BME280;31265;49.680;8.608;2023-09-12T08:15:13;100124.50;;;25.12;100.00
45541;BME280;31265;49.680;8.608;2023-09-12T08:17:41;100132.84;;;25.64;100.00
45541;BME280;31265;49.680;8.608;2023-09-12T08:20:10;100122.81;;;25.93;100.00
45541;BME280;31265;49.680;8.608;2023-09-12T08:22:38;100133.28;;;25.85;100.00
45541;BME280;31265;49.680;8.608;2023-09-12T08:25:07;100139.00;;;26.19;100.00
45541;BME280;31265;49.680;8.608;2023-09-12T08:27:35;100130.72;;;26.31;100.00
45541;BME280;31265;49.680;8.608;2023-09-12T08:30:04;100120.28;;;26.44;100.00
45541;BME280;31265;49.680;8.608;2023-09-12T08:32:35;100114.88;;;26.99;100.00
45541;BME280;31265;49.680;8.608;2023-09-12T08:35:04;100127.22;;;26.71;100.00
45541;BME280;31265;49.680;8.608;2023-09-12T08:37:32;100128.34;;;26.56;100.00
45541;BME280;31265;49.680;8.608;2023-09-12T08:40:01;100123.84;;;27.26;100.00
45541;BME280;31265;49.680;8.608;2023-09-12T08:42:39;100127.56;;;27.36;100.00
45541;BME280;31265;49.680;8.608;2023-09-12T08:45:12;100121.91;;;27.38;100.00
45541;BME280;31265;49.680;8.608;2023-09-12T08:47:44;100121.84;;;27.34;100.00
45541;BME280;31265;49.680;8.608;2023-09-12T08:50:15;100120.44;;;27.35;100.00
45541;BME280;31265;49.680;8.608;2023-09-12T08:52:45;100126.28;;;27.45;100.00
45541;BME280;31265;49.680;8.608;2023-09-12T08:55:31;100116.53;;;27.61;100.00
45541;BME280;31265;49.680;8.608;2023-09-12T08:58:03;100117.88;;;27.56;100.00
45541;BME280;31265;49.680;8.608;2023-09-12T09:00:32;100118.47;;;27.99;100.00
45541;BME280;31265;49.680;8.608;2023-09-12T09:03:04;100120.94;;;27.70;100.00
45541;BME280;31265;49.680;8.608;2023-09-12T09:05:34;100121.63;;;28.25;98.03
45541;BME280;31265;49.680;8.608;2023-09-12T09:08:05;100122.69;;;28.55;91.93
45541;BME280;31265;49.680;8.608;2023-09-12T09:10:34;100126.25;;;28.55;98.23
45541;BME280;31265;49.680;8.608;2023-09-12T09:13:16;100123.47;;;28.63;97.19
45541;BME280;31265;49.680;8.608;2023-09-12T09:15:45;100127.88;;;28.09;99.95
45541;BME280;31265;49.680;8.608;2023-09-12T09:18:16;100108.25;;;26.86;100.00
45541;BME280;31265;49.680;8.608;2023-09-12T09:20:44;100113.19;;;27.26;100.00
45541;BME280;31265;49.680;8.608;2023-09-12T09:23:16;100110.19;;;27.66;100.00
45541;BME280;31265;49.680;8.608;2023-09-12T09:25:51;100117.50;;;28.39;99.57
45541;BME280;31265;49.680;8.608;2023-09-12T09:28:21;100119.16;;;28.60;97.72
45541;BME280;31265;49.680;8.608;2023-09-12T09:30:52;100129.91;;;28.62;98.70
45541;BME280;31265;49.680;8.608;2023-09-12T09:33:23;100135.97;;;29.01;96.16
45541;BME280;31265;49.680;8.608;2023-09-12T09:36:02;100124.78;;;29.31;100.00
45541;BME280;31265;49.680;8.608;2023-09-12T09:38:31;100120.38;;;28.41;100.00
45541;BME280;31265;49.680;8.608;2023-09-12T09:40:59;100116.69;;;29.01;100.00
45541;BME280;31265;49.680;8.608;2023-09-12T09:43:30;100118.53;;;29.57;90.78
45541;BME280;31265;49.680;8.608;2023-09-12T09:46:02;100111.25;;;29.36;96.76
45541;BME280;31265;49.680;8.608;2023-09-12T09:48:32;100119.94;;;29.54;94.16
45541;BME280;31265;49.680;8.608;2023-09-12T09:51:03;100114.16;;;29.44;97.30
45541;BME280;31265;49.680;8.608;2023-09-12T09:53:32;100116.53;;;29.87;94.70
45541;BME280;31265;49.680;8.608;2023-09-12T09:56:08;100110.25;;;30.23;85.84
45541;BME280;31265;49.680;8.608;2023-09-12T09:58:45;100117.31;;;30.01;86.33
45541;BME280;31265;49.680;8.608;2023-09-12T10:01:17;100109.41;;;29.92;93.87
45541;BME280;31265;49.680;8.608;2023-09-12T10:03:49;100103.16;;;30.38;88.87
45541;BME280;31265;49.680;8.608;2023-09-12T10:06:19;100101.78;;;30.68;85.82
45541;BME280;31265;49.680;8.608;2023-09-12T10:08:51;100102.50;;;31.16;78.12
45541;BME280;31265;49.680;8.608;2023-09-12T10:11:22;100099.50;;;31.83;73.26
45541;BME280;31265;49.680;8.608;2023-09-12T10:13:53;100093.09;;;31.68;76.06
45541;BME280;31265;49.680;8.608;2023-09-12T10:16:24;100082.19;;;32.08;72.75
45541;BME280;31265;49.680;8.608;2023-09-12T10:18:58;100086.59;;;31.82;75.26
45541;BME280;31265;49.680;8.608;2023-09-12T10:21:29;100088.19;;;31.22;75.14
45541;BME280;31265;49.680;8.608;2023-09-12T10:23:59;100085.34;;;31.14;82.32
45541;BME280;31265;49.680;8.608;2023-09-12T10:26:31;100083.13;;;31.45;81.65
45541;BME280;31265;49.680;8.608;2023-09-12T10:29:00;100078.72;;;31.77;74.05
45541;BME280;31265;49.680;8.608;2023-09-12T10:31:32;100080.13;;;31.80;73.12
45541;BME280;31265;49.680;8.608;2023-09-12T10:34:03;100073.88;;;30.87;78.49
45541;BME280;31265;49.680;8.608;2023-09-12T10:36:38;100073.06;;;31.56;70.57
45541;BME280;31265;49.680;8.608;2023-09-12T10:39:09;100079.34;;;32.00;79.21
45541;BME280;31265;49.680;8.608;2023-09-12T10:41:38;100074.56;;;30.77;77.28
45541;BME280;31265;49.680;8.608;2023-09-12T10:44:10;100075.22;;;31.52;76.12
45541;BME280;31265;49.680;8.608;2023-09-12T10:46:39;100079.47;;;31.65;72.76
45541;BME280;31265;49.680;8.608;2023-09-12T10:49:11;100085.91;;;31.71;73.25
45541;BME280;31265;49.680;8.608;2023-09-12T10:51:41;100074.59;;;31.16;71.32
45541;BME280;31265;49.680;8.608;2023-09-12T10:54:14;100070.25;;;30.54;76.96
45541;BME280;31265;49.680;8.608;2023-09-12T10:56:44;100071.00;;;31.07;76.96
45541;BME280;31265;49.680;8.608;2023-09-12T10:59:17;100068.13;;;31.05;77.99
45541;BME280;31265;49.680;8.608;2023-09-12T11:01:48;100058.00;;;31.64;77.74
45541;BME280;31265;49.680;8.608;2023-09-12T11:04:31;100065.25;;;31.20;73.95
45541;BME280;31265;49.680;8.608;2023-09-12T11:07:01;100063.84;;;31.15;73.29
45541;BME280;31265;49.680;8.608;2023-09-12T11:09:30;100060.25;;;30.71;76.52
45541;BME280;31265;49.680;8.608;2023-09-12T11:12:02;100057.44;;;30.94;80.99
45541;BME280;31265;49.680;8.608;2023-09-12T11:14:32;100059.53;;;31.18;77.79
45541;BME280;31265;49.680;8.608;2023-09-12T11:17:21;100061.97;;;32.32;71.85
45541;BME280;31265;49.680;8.608;2023-09-12T11:19:52;100064.31;;;31.93;68.40
45541;BME280;31265;49.680;8.608;2023-09-12T11:22:22;100063.47;;;32.21;69.14
45541;BME280;31265;49.680;8.608;2023-09-12T11:24:52;100064.56;;;30.97;75.69
45541;BME280;31265;49.680;8.608;2023-09-12T11:27:20;100055.19;;;31.37;71.43
45541;BME280;31265;49.680;8.608;2023-09-12T11:29:49;100055.88;;;31.60;74.86
45541;BME280;31265;49.680;8.608;2023-09-12T11:32:31;100057.19;;;31.80;70.20
45541;BME280;31265;49.680;8.608;2023-09-12T11:35:04;100055.91;;;31.38;75.63
45541;BME280;31265;49.680;8.608;2023-09-12T11:37:33;100046.53;;;31.66;76.46
45541;BME280;31265;49.680;8.608;2023-09-12T11:40:19;100046.72;;;32.59;67.98
45541;BME280;31265;49.680;8.608;2023-09-12T11:42:50;100045.59;;;32.10;68.29
45541;BME280;31265;49.680;8.608;2023-09-12T11:45:19;100041.41;;;32.92;64.62
45541;BME280;31265;49.680;8.608;2023-09-12T11:47:49;100038.34;;;33.14;64.96
45541;BME280;31265;49.680;8.608;2023-09-12T11:50:32;100047.22;;;32.84;62.08
45541;BME280;31265;49.680;8.608;2023-09-12T11:53:03;100042.50;;;32.47;65.44
45541;BME280;31265;49.680;8.608;2023-09-12T11:55:34;100041.78;;;33.29;61.77
45541;BME280;31265;49.680;8.608;2023-09-12T11:58:03;100044.69;;;33.25;58.99
45541;BME280;31265;49.680;8.608;2023-09-12T12:00:32;100040.91;;;34.01;57.54
45541;BME280;31265;49.680;8.608;2023-09-12T12:03:00;100040.06;;;33.53;60.23
45541;BME280;31265;49.680;8.608;2023-09-12T12:05:30;100042.31;;;33.46;62.86
45541;BME280;31265;49.680;8.608;2023-09-12T12:08:00;100043.06;;;32.66;62.91
45541;BME280;31265;49.680;8.608;2023-09-12T12:10:50;100044.66;;;32.45;63.84
45541;BME280;31265;49.680;8.608;2023-09-12T12:13:19;100039.94;;;32.97;63.71
45541;BME280;31265;49.680;8.608;2023-09-12T12:15:47;100039.56;;;33.34;67.76
45541;BME280;31265;49.680;8.608;2023-09-12T12:18:16;100029.44;;;32.65;64.24
45541;BME280;31265;49.680;8.608;2023-09-12T12:20:46;100019.63;;;32.31;67.51
45541;BME280;31265;49.680;8.608;2023-09-12T12:23:15;100023.00;;;31.10;68.87
45541;BME280;31265;49.680;8.608;2023-09-12T12:25:43;100022.94;;;31.51;74.44
45541;BME280;31265;49.680;8.608;2023-09-12T12:28:12;100015.03;;;31.47;76.16
45541;BME280;31265;49.680;8.608;2023-09-12T12:30:40;100012.69;;;31.93;76.17
45541;BME280;31265;49.680;8.608;2023-09-12T12:33:10;100010.56;;;31.96;65.94
45541;BME280;31265;49.680;8.608;2023-09-12T12:36:02;100012.06;;;31.80;71.53
45541;BME280;31265;49.680;8.608;2023-09-12T12:38:33;100002.75;;;31.74;67.59
45541;BME280;31265;49.680;8.608;2023-09-12T12:41:07;100016.16;;;32.16;67.98
45541;BME280;31265;49.680;8.608;2023-09-12T12:43:35;100009.91;;;32.82;65.17
45541;BME280;31265;49.680;8.608;2023-09-12T12:46:10;100008.34;;;32.95;62.03
45541;BME280;31265;49.680;8.608;2023-09-12T12:48:42;100010.19;;;33.25;61.86
45541;BME280;31265;49.680;8.608;2023-09-12T12:51:16;100001.69;;;33.17;59.47
45541;BME280;31265;49.680;8.608;2023-09-12T12:53:46;100008.91;;;33.14;58.80
45541;BME280;31265;49.680;8.608;2023-09-12T12:56:23;100002.38;;;33.17;59.12
45541;BME280;31265;49.680;8.608;2023-09-12T12:58:55;99997.91;;;34.38;56.51